Pacific - South Coast: Past 24 Hour Conditions

 

East Dellwood - 46207

05:00 PM PDT 02 September 2014Buoy position: 50.88N 129.93W
This table is a summary of hourly weather conditions for the past 24 hours.
Date / Time
(PDT)
Wind(knots) Wave height(m) Wave period(s) Pressure(kPa) Air tempC) Water tempC)
02 September 2014
17:00 NNW 16 gust 19 2.5 7.0 101.8 16 17
16:00 NW 18 gust 21 2.4 9.0 101.8 16 17
15:00 NNW 18 gust 21 2.6 6.0 101.8 16 17
14:00 NNW 21 N/A N/A 101.8 16 N/A
13:00 NNW 19 N/A N/A 101.7 16 17
12:00 NNW 19 gust 23 2.2 8.0 101.7 16 17
11:00 NNW 21 gust 25 2.1 10.0 101.6 16 17
10:00 NNW 21 gust 23 2.3 9.0 101.6 16 17
9:00 NNW 21 N/A N/A 101.5 16 N/A
8:00 NNW 19 N/A N/A N/A N/A N/A
7:00 NNW 21 gust 25 2.4 10.0 101.4 16 17
6:00 NNW 18 gust 23 2.2 10.0 101.4 14 17
5:00 NW 8 gust 12 2.2 10.0 101.4 16 17
4:00 WNW 8 gust 12 2.3 10.0 101.4 16 17
3:00 NNW 4 gust 8 2.1 10.0 101.5 15 17
2:00 NNW 6 gust 8 2.1 10.0 101.5 15 17
1:00 NNW 8 gust 10 2.1 10.0 101.6 15 17
0:00 W 8 gust 10 2.1 10.0 101.6 16 17
01 September 2014
23:00 W 12 gust 14 2.0 10.0 101.6 16 17
22:00 WNW 12 gust 14 2.2 8.0 101.7 16 17
21:00 WNW 10 gust 12 2.2 10.0 101.7 17 17
20:00 W 10 gust 16 2.2 9.0 101.7 16 17
19:00 W 10 gust 14 2.2 10.0 101.7 17 17
18:00 W 12 gust 14 2.6 9.0 101.8 17 17
17:00 W 12 gust 16 2.6 10.0 101.8 17 17
 
Map of Pacific - South Coast marine weather areas Tsawwassen Ferry Terminal South Nomad - 46036 Sentry Shoal - 46131 South Brooks - 46132 Halibut Bank - 46146 South Moresby - 46147 South Hecate Strait - 46185 West Sea Otter - 46204 La Perouse Bank - 46206 East Dellwood - 46207 Discovery Island Esquimalt Harbour Kelp Reefs Malahat Race Rocks Lightstation Saturna Island Sheringham Point University of Victoria Victoria Gonzales Victoria Int'l Airport Ballenas Islands Campbell River Airport Comox Airport Entrance Island Fanny Island Nanaimo Airport Port Hardy Airport Sisters Islets Estevan Point Sartine Island Solander Island Tofino Airport Grief Point Powell River Airport Sechelt Cape St.James Bella Bella Airport Bella Coola Airport Cathedral Point Herbert Island Point Atkinson Sand Heads Lightstation Vancouver Harbour Vancouver Int'l Airport West Vancouver Port Alberni Howe Sound - Pam Rocks Squamish Airport